sensor_id;sensor_type;location;lat;lon;timestamp;pressure;altitude;pressure_sealevel;temperature;humidity
61761;BME280;47664;51.660;-0.100;2023-01-26T00:01:37;102183.74;;;3.89;67.63
61761;BME280;47664;51.660;-0.100;2023-01-26T00:04:10;102186.29;;;4.84;66.45
61761;BME280;47664;51.660;-0.100;2023-01-26T00:06:42;102179.31;;;4.32;66.18
61761;BME280;47664;51.660;-0.100;2023-01-26T00:09:12;102173.47;;;4.20;66.01
61761;BME280;47664;51.660;-0.100;2023-01-26T00:11:44;102169.20;;;4.37;66.38
61761;BME280;47664;51.660;-0.100;2023-01-26T00:14:16;102170.17;;;3.93;67.70
61761;BME280;47664;51.660;-0.100;2023-01-26T00:16:49;102165.92;;;3.78;67.77
61761;BME280;47664;51.660;-0.100;2023-01-26T00:19:22;102172.89;;;3.71;67.77
61761;BME280;47664;51.660;-0.100;2023-01-26T00:21:54;102168.42;;;3.39;68.49
61761;BME280;47664;51.660;-0.100;2023-01-26T00:24:27;102159.30;;;3.43;68.34
61761;BME280;47664;51.660;-0.100;2023-01-26T00:26:58;102167.05;;;3.24;69.16
61761;BME280;47664;51.660;-0.100;2023-01-26T00:29:31;102162.92;;;3.48;68.65
61761;BME280;47664;51.660;-0.100;2023-01-26T00:32:03;102160.46;;;3.34;68.92
61761;BME280;47664;51.660;-0.100;2023-01-26T00:34:35;102162.47;;;3.21;68.23
61761;BME280;47664;51.660;-0.100;2023-01-26T00:37:07;102162.15;;;3.10;68.33
61761;BME280;47664;51.660;-0.100;2023-01-26T00:39:39;102162.84;;;2.73;69.86
61761;BME280;47664;51.660;-0.100;2023-01-26T00:42:11;102163.82;;;3.26;68.91
61761;BME280;47664;51.660;-0.100;2023-01-26T00:44:44;102161.52;;;3.40;67.63
61761;BME280;47664;51.660;-0.100;2023-01-26T00:47:18;102167.50;;;3.59;67.68
61761;BME280;47664;51.660;-0.100;2023-01-26T00:49:50;102170.62;;;2.89;68.92
61761;BME280;47664;51.660;-0.100;2023-01-26T00:52:22;102168.69;;;2.89;69.05
61761;BME280;47664;51.660;-0.100;2023-01-26T00:54:54;102171.81;;;2.31;70.42
61761;BME280;47664;51.660;-0.100;2023-01-26T00:57:27;102176.26;;;1.84;71.84
61761;BME280;47664;51.660;-0.100;2023-01-26T01:00:00;102177.40;;;2.01;71.57
61761;BME280;47664;51.660;-0.100;2023-01-26T01:02:32;102170.88;;;1.87;72.09
61761;BME280;47664;51.660;-0.100;2023-01-26T01:05:04;102166.78;;;2.34;71.40
61761;BME280;47664;51.660;-0.100;2023-01-26T01:07:36;102165.25;;;2.04;71.25
61761;BME280;47664;51.660;-0.100;2023-01-26T01:10:09;102169.97;;;2.53;70.99
61761;BME280;47664;51.660;-0.100;2023-01-26T01:12:41;102167.94;;;2.49;70.76
61761;BME280;47664;51.660;-0.100;2023-01-26T01:15:13;102166.63;;;2.27;70.79
61761;BME280;47664;51.660;-0.100;2023-01-26T01:17:46;102170.67;;;2.26;71.27
61761;BME280;47664;51.660;-0.100;2023-01-26T01:20:18;102167.39;;;1.99;71.13
61761;BME280;47664;51.660;-0.100;2023-01-26T01:22:51;102174.74;;;2.27;70.50
61761;BME280;47664;51.660;-0.100;2023-01-26T01:25:23;102172.22;;;2.20;70.08
61761;BME280;47664;51.660;-0.100;2023-01-26T01:27:55;102168.65;;;2.14;70.25
61761;BME280;47664;51.660;-0.100;2023-01-26T01:30:27;102171.72;;;2.15;69.23
61761;BME280;47664;51.660;-0.100;2023-01-26T01:33:00;102168.48;;;2.66;68.50
61761;BME280;47664;51.660;-0.100;2023-01-26T01:35:32;102172.11;;;2.59;68.92
61761;BME280;47664;51.660;-0.100;2023-01-26T01:38:04;102175.81;;;2.25;69.87
61761;BME280;47664;51.660;-0.100;2023-01-26T01:40:41;102179.56;;;2.15;70.06
61761;BME280;47664;51.660;-0.100;2023-01-26T01:43:14;102181.40;;;2.06;70.45
61761;BME280;47664;51.660;-0.100;2023-01-26T01:45:48;102183.79;;;1.78;71.59
61761;BME280;47664;51.660;-0.100;2023-01-26T01:48:20;102186.97;;;2.33;70.85
61761;BME280;47664;51.660;-0.100;2023-01-26T01:50:57;102185.64;;;2.59;68.88
61761;BME280;47664;51.660;-0.100;2023-01-26T01:53:34;102186.92;;;2.14;68.40
61761;BME280;47664;51.660;-0.100;2023-01-26T01:56:10;102183.61;;;2.28;68.85
61761;BME280;47664;51.660;-0.100;2023-01-26T01:58:45;102188.19;;;2.42;69.23
61761;BME280;47664;51.660;-0.100;2023-01-26T02:01:20;102194.52;;;2.21;69.06
61761;BME280;47664;51.660;-0.100;2023-01-26T02:03:51;102188.73;;;2.40;69.47
61761;BME280;47664;51.660;-0.100;2023-01-26T02:06:28;102190.12;;;1.77;69.91
61761;BME280;47664;51.660;-0.100;2023-01-26T02:09:02;102182.60;;;1.99;69.20
61761;BME280;47664;51.660;-0.100;2023-01-26T02:11:36;102183.13;;;1.93;68.71
61761;BME280;47664;51.660;-0.100;2023-01-26T02:14:13;102181.42;;;2.49;67.93
61761;BME280;47664;51.660;-0.100;2023-01-26T02:16:46;102176.28;;;2.30;68.01
61761;BME280;47664;51.660;-0.100;2023-01-26T02:19:21;102174.64;;;2.44;67.68
61761;BME280;47664;51.660;-0.100;2023-01-26T02:21:56;102162.92;;;2.61;66.53
61761;BME280;47664;51.660;-0.100;2023-01-26T02:24:30;102166.36;;;2.30;67.95
61761;BME280;47664;51.660;-0.100;2023-01-26T02:27:06;102172.18;;;2.50;68.30
61761;BME280;47664;51.660;-0.100;2023-01-26T02:29:38;102174.01;;;1.78;68.67
61761;BME280;47664;51.660;-0.100;2023-01-26T02:32:11;102175.16;;;2.27;68.61
61761;BME280;47664;51.660;-0.100;2023-01-26T02:34:43;102177.33;;;1.82;68.11
61761;BME280;47664;51.660;-0.100;2023-01-26T02:37:13;102178.30;;;2.18;67.32
61761;BME280;47664;51.660;-0.100;2023-01-26T02:39:44;102178.40;;;2.52;66.97
61761;BME280;47664;51.660;-0.100;2023-01-26T02:42:19;102179.21;;;2.14;67.12
61761;BME280;47664;51.660;-0.100;2023-01-26T02:44:52;102171.92;;;2.55;66.60
61761;BME280;47664;51.660;-0.100;2023-01-26T02:47:24;102179.77;;;2.27;66.55
61761;BME280;47664;51.660;-0.100;2023-01-26T02:49:56;102182.66;;;2.44;66.45
61761;BME280;47664;51.660;-0.100;2023-01-26T02:52:29;102182.93;;;2.53;66.47
61761;BME280;47664;51.660;-0.100;2023-01-26T02:55:01;102182.60;;;2.20;66.85
61761;BME280;47664;51.660;-0.100;2023-01-26T02:57:34;102190.55;;;2.16;67.95
61761;BME280;47664;51.660;-0.100;2023-01-26T03:00:07;102195.77;;;2.26;68.04
61761;BME280;47664;51.660;-0.100;2023-01-26T03:02:40;102192.63;;;1.80;69.01
61761;BME280;47664;51.660;-0.100;2023-01-26T03:05:13;102187.69;;;2.05;69.15
61761;BME280;47664;51.660;-0.100;2023-01-26T03:07:46;102190.79;;;1.76;68.64
61761;BME280;47664;51.660;-0.100;2023-01-26T03:10:18;102187.04;;;1.76;69.07
61761;BME280;47664;51.660;-0.100;2023-01-26T03:12:50;102185.23;;;1.79;69.21
61761;BME280;47664;51.660;-0.100;2023-01-26T03:15:23;102178.57;;;1.52;69.40
61761;BME280;47664;51.660;-0.100;2023-01-26T03:18:03;102184.64;;;1.71;68.90
61761;BME280;47664;51.660;-0.100;2023-01-26T03:20:36;102186.44;;;1.87;68.18
61761;BME280;47664;51.660;-0.100;2023-01-26T03:23:07;102182.75;;;1.97;67.29
61761;BME280;47664;51.660;-0.100;2023-01-26T03:25:40;102183.66;;;1.91;67.03
61761;BME280;47664;51.660;-0.100;2023-01-26T03:28:12;102186.77;;;2.41;66.57
61761;BME280;47664;51.660;-0.100;2023-01-26T03:30:44;102188.20;;;2.26;67.04
61761;BME280;47664;51.660;-0.100;2023-01-26T03:33:17;102193.00;;;2.21;67.85
61761;BME280;47664;51.660;-0.100;2023-01-26T03:35:50;102190.36;;;2.21;67.38
61761;BME280;47664;51.660;-0.100;2023-01-26T03:38:23;102190.11;;;2.33;66.00
61761;BME280;47664;51.660;-0.100;2023-01-26T03:40:56;102191.90;;;2.26;66.03
61761;BME280;47664;51.660;-0.100;2023-01-26T03:43:28;102191.78;;;1.75;66.38
61761;BME280;47664;51.660;-0.100;2023-01-26T03:46:01;102188.41;;;2.64;66.70
61761;BME280;47664;51.660;-0.100;2023-01-26T03:48:34;102187.01;;;1.78;67.30
61761;BME280;47664;51.660;-0.100;2023-01-26T03:51:06;102183.68;;;2.06;66.86
61761;BME280;47664;51.660;-0.100;2023-01-26T03:53:39;102189.92;;;2.05;68.18
61761;BME280;47664;51.660;-0.100;2023-01-26T03:56:12;102186.80;;;2.52;67.30
61761;BME280;47664;51.660;-0.100;2023-01-26T03:58:44;102200.25;;;2.22;66.68
61761;BME280;47664;51.660;-0.100;2023-01-26T04:01:16;102201.85;;;2.43;67.00
61761;BME280;47664;51.660;-0.100;2023-01-26T04:03:48;102204.74;;;1.76;68.51
61761;BME280;47664;51.660;-0.100;2023-01-26T04:06:21;102196.77;;;2.12;68.10
61761;BME280;47664;51.660;-0.100;2023-01-26T04:08:53;102190.52;;;2.25;67.93
61761;BME280;47664;51.660;-0.100;2023-01-26T04:11:25;102191.74;;;1.94;68.25
61761;BME280;47664;51.660;-0.100;2023-01-26T04:13:57;102189.33;;;2.00;67.86
61761;BME280;47664;51.660;-0.100;2023-01-26T04:16:30;102193.26;;;1.92;68.30
61761;BME280;47664;51.660;-0.100;2023-01-26T04:19:02;102197.56;;;2.43;68.49
61761;BME280;47664;51.660;-0.100;2023-01-26T04:21:34;102207.77;;;2.11;68.43
61761;BME280;47664;51.660;-0.100;2023-01-26T04:24:07;102211.50;;;2.30;67.66
61761;BME280;47664;51.660;-0.100;2023-01-26T04:26:41;102215.99;;;1.95;68.39
61761;BME280;47664;51.660;-0.100;2023-01-26T04:29:15;102223.82;;;2.49;68.16
61761;BME280;47664;51.660;-0.100;2023-01-26T04:31:47;102227.34;;;2.26;68.15
61761;BME280;47664;51.660;-0.100;2023-01-26T04:34:20;102234.97;;;2.33;69.14
61761;BME280;47664;51.660;-0.100;2023-01-26T04:36:52;102232.89;;;2.25;69.57
61761;BME280;47664;51.660;-0.100;2023-01-26T04:39:25;102236.72;;;1.63;70.51
61761;BME280;47664;51.660;-0.100;2023-01-26T04:41:57;102238.39;;;2.42;69.21
61761;BME280;47664;51.660;-0.100;2023-01-26T04:44:29;102233.53;;;1.75;69.54
61761;BME280;47664;51.660;-0.100;2023-01-26T04:47:01;102232.13;;;2.53;68.14
61761;BME280;47664;51.660;-0.100;2023-01-26T04:49:33;102236.47;;;2.31;68.83
61761;BME280;47664;51.660;-0.100;2023-01-26T04:52:05;102227.96;;;2.56;67.79
61761;BME280;47664;51.660;-0.100;2023-01-26T04:54:37;102232.54;;;2.36;68.38
61761;BME280;47664;51.660;-0.100;2023-01-26T04:57:10;102226.27;;;2.64;68.20
61761;BME280;47664;51.660;-0.100;2023-01-26T04:59:42;102218.13;;;2.34;68.58
61761;BME280;47664;51.660;-0.100;2023-01-26T05:02:14;102220.92;;;2.38;69.18
61761;BME280;47664;51.660;-0.100;2023-01-26T05:04:46;102214.28;;;2.42;69.77
61761;BME280;47664;51.660;-0.100;2023-01-26T05:07:19;102220.72;;;2.36;69.00
61761;BME280;47664;51.660;-0.100;2023-01-26T05:09:51;102221.99;;;2.58;68.33
61761;BME280;47664;51.660;-0.100;2023-01-26T05:12:23;102225.21;;;2.61;68.97
61761;BME280;47664;51.660;-0.100;2023-01-26T05:14:55;102232.77;;;2.48;68.59
61761;BME280;47664;51.660;-0.100;2023-01-26T05:17:27;102233.83;;;2.77;67.47
61761;BME280;47664;51.660;-0.100;2023-01-26T05:19:59;102232.81;;;2.81;68.17
61761;BME280;47664;51.660;-0.100;2023-01-26T05:22:31;102237.67;;;2.36;69.28
61761;BME280;47664;51.660;-0.100;2023-01-26T05:25:04;102234.28;;;2.49;68.66
61761;BME280;47664;51.660;-0.100;2023-01-26T05:27:35;102228.17;;;2.65;67.87
61761;BME280;47664;51.660;-0.100;2023-01-26T05:30:09;102229.56;;;2.37;68.23
61761;BME280;47664;51.660;-0.100;2023-01-26T05:32:41;102232.33;;;2.88;67.16
61761;BME280;47664;51.660;-0.100;2023-01-26T05:35:14;102230.16;;;2.97;67.00
61761;BME280;47664;51.660;-0.100;2023-01-26T05:37:46;102227.41;;;2.72;67.13
61761;BME280;47664;51.660;-0.100;2023-01-26T05:40:19;102226.33;;;2.99;67.28
61761;BME280;47664;51.660;-0.100;2023-01-26T05:42:51;102223.10;;;2.72;68.14
61761;BME280;47664;51.660;-0.100;2023-01-26T05:45:23;102220.03;;;2.13;69.10
61761;BME280;47664;51.660;-0.100;2023-01-26T05:47:56;102225.35;;;2.45;68.69
61761;BME280;47664;51.660;-0.100;2023-01-26T05:50:28;102234.72;;;2.14;68.33
61761;BME280;47664;51.660;-0.100;2023-01-26T05:53:00;102239.31;;;2.68;67.45
61761;BME280;47664;51.660;-0.100;2023-01-26T05:55:32;102236.06;;;2.07;67.90
61761;BME280;47664;51.660;-0.100;2023-01-26T05:58:04;102235.34;;;2.92;67.10
61761;BME280;47664;51.660;-0.100;2023-01-26T06:00:37;102233.78;;;2.74;66.29
61761;BME280;47664;51.660;-0.100;2023-01-26T06:03:09;102235.58;;;2.81;67.03
61761;BME280;47664;51.660;-0.100;2023-01-26T06:05:40;102238.91;;;2.58;67.55
61761;BME280;47664;51.660;-0.100;2023-01-26T06:08:13;102239.99;;;2.25;68.58
61761;BME280;47664;51.660;-0.100;2023-01-26T06:10:45;102240.42;;;2.59;67.58
61761;BME280;47664;51.660;-0.100;2023-01-26T06:13:17;102239.79;;;2.64;67.41
61761;BME280;47664;51.660;-0.100;2023-01-26T06:15:49;102243.19;;;2.93;66.28
61761;BME280;47664;51.660;-0.100;2023-01-26T06:18:22;102244.24;;;3.46;65.76
61761;BME280;47664;51.660;-0.100;2023-01-26T06:20:57;102255.11;;;3.33;64.67
61761;BME280;47664;51.660;-0.100;2023-01-26T06:23:29;102252.13;;;2.12;66.86
61761;BME280;47664;51.660;-0.100;2023-01-26T06:26:03;102249.46;;;2.47;68.07
61761;BME280;47664;51.660;-0.100;2023-01-26T06:28:35;102250.92;;;2.12;68.47
61761;BME280;47664;51.660;-0.100;2023-01-26T06:31:08;102256.72;;;2.67;67.22
61761;BME280;47664;51.660;-0.100;2023-01-26T06:33:41;102262.69;;;2.21;68.08
61761;BME280;47664;51.660;-0.100;2023-01-26T06:36:14;102272.14;;;2.34;68.21
61761;BME280;47664;51.660;-0.100;2023-01-26T06:38:45;102273.51;;;2.71;67.12
61761;BME280;47664;51.660;-0.100;2023-01-26T06:41:18;102273.42;;;2.49;68.02
61761;BME280;47664;51.660;-0.100;2023-01-26T06:43:51;102279.57;;;2.52;68.20
61761;BME280;47664;51.660;-0.100;2023-01-26T06:46:24;102280.92;;;2.60;67.62
61761;BME280;47664;51.660;-0.100;2023-01-26T06:48:56;102290.38;;;3.17;66.02
61761;BME280;47664;51.660;-0.100;2023-01-26T06:51:57;102282.19;;;2.62;65.69
61761;BME280;47664;51.660;-0.100;2023-01-26T06:54:30;102289.92;;;2.80;67.40
61761;BME280;47664;51.660;-0.100;2023-01-26T06:57:02;102289.80;;;2.77;67.81
61761;BME280;47664;51.660;-0.100;2023-01-26T06:59:35;102298.78;;;2.68;67.06
61761;BME280;47664;51.660;-0.100;2023-01-26T07:02:09;102299.86;;;2.97;66.95
61761;BME280;47664;51.660;-0.100;2023-01-26T07:04:43;102303.22;;;2.54;67.19
61761;BME280;47664;51.660;-0.100;2023-01-26T07:07:15;102313.42;;;2.84;67.16
61761;BME280;47664;51.660;-0.100;2023-01-26T07:09:47;102313.60;;;2.70;67.04
61761;BME280;47664;51.660;-0.100;2023-01-26T07:12:19;102320.73;;;3.33;66.56
61761;BME280;47664;51.660;-0.100;2023-01-26T07:14:51;102318.39;;;3.42;66.23
61761;BME280;47664;51.660;-0.100;2023-01-26T07:17:24;102317.86;;;3.47;65.12
61761;BME280;47664;51.660;-0.100;2023-01-26T07:19:56;102319.07;;;3.38;65.83
61761;BME280;47664;51.660;-0.100;2023-01-26T07:22:28;102316.51;;;2.73;66.85
61761;BME280;47664;51.660;-0.100;2023-01-26T07:25:01;102315.62;;;2.81;68.00
61761;BME280;47664;51.660;-0.100;2023-01-26T07:27:32;102310.82;;;3.40;67.03
61761;BME280;47664;51.660;-0.100;2023-01-26T07:30:04;102301.48;;;2.54;69.09
61761;BME280;47664;51.660;-0.100;2023-01-26T07:32:37;102289.84;;;2.53;69.08
61761;BME280;47664;51.660;-0.100;2023-01-26T07:35:10;102288.67;;;3.24;68.18
61761;BME280;47664;51.660;-0.100;2023-01-26T07:37:42;102292.19;;;3.15;67.94
61761;BME280;47664;51.660;-0.100;2023-01-26T07:40:14;102302.41;;;2.96;67.93
61761;BME280;47664;51.660;-0.100;2023-01-26T07:42:47;102315.67;;;2.69;68.78
61761;BME280;47664;51.660;-0.100;2023-01-26T07:45:19;102317.67;;;2.78;69.54
61761;BME280;47664;51.660;-0.100;2023-01-26T07:47:53;102317.65;;;2.72;70.13
61761;BME280;47664;51.660;-0.100;2023-01-26T07:50:25;102321.98;;;2.57;68.89
61761;BME280;47664;51.660;-0.100;2023-01-26T07:52:58;102317.54;;;2.50;69.12
61761;BME280;47664;51.660;-0.100;2023-01-26T07:55:31;102325.71;;;2.42;70.34
61761;BME280;47664;51.660;-0.100;2023-01-26T07:58:03;102313.74;;;2.47;69.79
61761;BME280;47664;51.660;-0.100;2023-01-26T08:00:35;102317.99;;;2.25;70.28
61761;BME280;47664;51.660;-0.100;2023-01-26T08:03:08;102321.28;;;2.22;70.31
61761;BME280;47664;51.660;-0.100;2023-01-26T08:05:40;102315.63;;;2.32;69.62
61761;BME280;47664;51.660;-0.100;2023-01-26T08:08:12;102318.22;;;2.85;68.50
61761;BME280;47664;51.660;-0.100;2023-01-26T08:10:44;102324.48;;;1.98;69.55
61761;BME280;47664;51.660;-0.100;2023-01-26T08:13:16;102321.84;;;2.05;71.19
61761;BME280;47664;51.660;-0.100;2023-01-26T08:15:49;102322.36;;;1.88;71.38
61761;BME280;47664;51.660;-0.100;2023-01-26T08:18:21;102323.95;;;2.25;70.84
61761;BME280;47664;51.660;-0.100;2023-01-26T08:20:55;102324.08;;;2.76;69.97
61761;BME280;47664;51.660;-0.100;2023-01-26T08:23:27;102317.97;;;2.31;69.10
61761;BME280;47664;51.660;-0.100;2023-01-26T08:26:00;102315.41;;;2.68;68.62
61761;BME280;47664;51.660;-0.100;2023-01-26T08:28:32;102314.48;;;2.20;68.50
61761;BME280;47664;51.660;-0.100;2023-01-26T08:31:03;102322.68;;;3.23;67.57
61761;BME280;47664;51.660;-0.100;2023-01-26T08:33:36;102319.77;;;2.91;67.50
61761;BME280;47664;51.660;-0.100;2023-01-26T08:36:09;102313.13;;;2.63;68.35
61761;BME280;47664;51.660;-0.100;2023-01-26T08:38:42;102313.83;;;2.26;69.05
61761;BME280;47664;51.660;-0.100;2023-01-26T08:41:14;102319.44;;;2.25;70.30
61761;BME280;47664;51.660;-0.100;2023-01-26T08:43:46;102332.05;;;2.63;69.10
61761;BME280;47664;51.660;-0.100;2023-01-26T08:46:18;102327.28;;;2.96;68.88
61761;BME280;47664;51.660;-0.100;2023-01-26T08:48:51;102326.76;;;2.70;71.06
61761;BME280;47664;51.660;-0.100;2023-01-26T08:51:23;102327.41;;;2.57;70.97
61761;BME280;47664;51.660;-0.100;2023-01-26T08:53:55;102321.91;;;2.61;70.67
61761;BME280;47664;51.660;-0.100;2023-01-26T08:56:27;102321.83;;;2.11;71.54
61761;BME280;47664;51.660;-0.100;2023-01-26T08:58:59;102332.35;;;2.93;70.77
61761;BME280;47664;51.660;-0.100;2023-01-26T09:01:32;102336.22;;;3.02;69.42
61761;BME280;47664;51.660;-0.100;2023-01-26T09:04:04;102337.70;;;3.54;68.30
61761;BME280;47664;51.660;-0.100;2023-01-26T09:06:36;102341.93;;;3.01;69.83
61761;BME280;47664;51.660;-0.100;2023-01-26T09:09:08;102348.34;;;3.48;68.44
61761;BME280;47664;51.660;-0.100;2023-01-26T09:11:40;102354.41;;;3.64;68.10
61761;BME280;47664;51.660;-0.100;2023-01-26T09:14:12;102353.84;;;3.48;68.38
61761;BME280;47664;51.660;-0.100;2023-01-26T09:16:44;102358.31;;;3.64;68.46
61761;BME280;47664;51.660;-0.100;2023-01-26T09:19:16;102359.86;;;3.81;67.84
61761;BME280;47664;51.660;-0.100;2023-01-26T09:21:50;102360.94;;;3.68;68.62
61761;BME280;47664;51.660;-0.100;2023-01-26T09:24:23;102355.82;;;3.37;69.56
61761;BME280;47664;51.660;-0.100;2023-01-26T09:26:55;102360.40;;;3.94;69.61
61761;BME280;47664;51.660;-0.100;2023-01-26T09:29:27;102364.25;;;2.81;70.52
61761;BME280;47664;51.660;-0.100;2023-01-26T09:32:00;102368.81;;;3.71;69.62
61761;BME280;47664;51.660;-0.100;2023-01-26T09:34:32;102363.21;;;3.70;68.94
61761;BME280;47664;51.660;-0.100;2023-01-26T09:37:05;102366.59;;;3.77;70.08
61761;BME280;47664;51.660;-0.100;2023-01-26T09:39:37;102364.72;;;3.66;69.97
61761;BME280;47664;51.660;-0.100;2023-01-26T09:42:22;102362.42;;;3.65;70.48
61761;BME280;47664;51.660;-0.100;2023-01-26T09:45:01;102365.77;;;3.71;69.28
61761;BME280;47664;51.660;-0.100;2023-01-26T09:47:43;102366.41;;;3.44;70.53
61761;BME280;47664;51.660;-0.100;2023-01-26T09:50:20;102371.56;;;3.73;70.63
61761;BME280;47664;51.660;-0.100;2023-01-26T09:52:52;102372.98;;;3.91;70.47
61761;BME280;47664;51.660;-0.100;2023-01-26T09:55:27;102370.10;;;3.42;70.17
61761;BME280;47664;51.660;-0.100;2023-01-26T09:58:02;102369.35;;;4.20;69.82
61761;BME280;47664;51.660;-0.100;2023-01-26T10:00:34;102376.39;;;3.69;70.69
61761;BME280;47664;51.660;-0.100;2023-01-26T10:03:12;102375.02;;;3.85;71.10
61761;BME280;47664;51.660;-0.100;2023-01-26T10:05:48;102373.69;;;3.92;70.68
61761;BME280;47664;51.660;-0.100;2023-01-26T10:08:25;102376.16;;;3.60;72.02
61761;BME280;47664;51.660;-0.100;2023-01-26T10:10:59;102378.69;;;3.75;72.02
61761;BME280;47664;51.660;-0.100;2023-01-26T10:13:33;102381.86;;;3.69;71.04
61761;BME280;47664;51.660;-0.100;2023-01-26T10:16:05;102381.41;;;3.88;70.79
61761;BME280;47664;51.660;-0.100;2023-01-26T10:18:44;102382.62;;;3.96;70.27
61761;BME280;47664;51.660;-0.100;2023-01-26T10:21:18;102385.09;;;4.27;69.70
61761;BME280;47664;51.660;-0.100;2023-01-26T10:23:52;102386.01;;;4.30;70.00
61761;BME280;47664;51.660;-0.100;2023-01-26T10:26:28;102389.11;;;3.75;70.27
61761;BME280;47664;51.660;-0.100;2023-01-26T10:29:02;102396.55;;;4.26;70.31
61761;BME280;47664;51.660;-0.100;2023-01-26T10:31:36;102400.42;;;4.79;69.78
61761;BME280;47664;51.660;-0.100;2023-01-26T10:34:12;102405.71;;;4.60;69.21
61761;BME280;47664;51.660;-0.100;2023-01-26T10:36:46;102402.17;;;4.20;70.05
61761;BME280;47664;51.660;-0.100;2023-01-26T10:39:19;102410.15;;;4.51;69.51
61761;BME280;47664;51.660;-0.100;2023-01-26T10:41:57;102408.78;;;4.48;70.03
61761;BME280;47664;51.660;-0.100;2023-01-26T10:44:31;102407.08;;;4.22;69.72
61761;BME280;47664;51.660;-0.100;2023-01-26T10:47:04;102401.87;;;4.94;69.13
61761;BME280;47664;51.660;-0.100;2023-01-26T10:49:38;102395.36;;;4.47;71.25
61761;BME280;47664;51.660;-0.100;2023-01-26T10:52:14;102389.74;;;4.73;71.08
61761;BME280;47664;51.660;-0.100;2023-01-26T10:54:48;102391.04;;;4.37;71.07
61761;BME280;47664;51.660;-0.100;2023-01-26T10:57:24;102391.50;;;4.52;71.11
61761;BME280;47664;51.660;-0.100;2023-01-26T11:00:00;102393.09;;;4.92;69.33
61761;BME280;47664;51.660;-0.100;2023-01-26T11:02:35;102393.32;;;4.47;68.43
61761;BME280;47664;51.660;-0.100;2023-01-26T11:05:17;102399.01;;;4.90;69.55
61761;BME280;47664;51.660;-0.100;2023-01-26T11:07:53;102394.42;;;4.69;68.92
61761;BME280;47664;51.660;-0.100;2023-01-26T11:10:28;102396.34;;;4.94;68.76
61761;BME280;47664;51.660;-0.100;2023-01-26T11:13:14;102396.32;;;4.42;69.73
61761;BME280;47664;51.660;-0.100;2023-01-26T11:15:49;102395.26;;;4.72;69.43
61761;BME280;47664;51.660;-0.100;2023-01-26T11:18:27;102394.85;;;4.89;68.27
61761;BME280;47664;51.660;-0.100;2023-01-26T11:21:05;102395.90;;;5.45;67.79
61761;BME280;47664;51.660;-0.100;2023-01-26T11:23:44;102395.26;;;5.28;67.36
61761;BME280;47664;51.660;-0.100;2023-01-26T11:28:35;102384.78;;;5.68;68.30
61761;BME280;47664;51.660;-0.100;2023-01-26T11:31:16;102392.32;;;5.87;67.17
61761;BME280;47664;51.660;-0.100;2023-01-26T11:33:55;102397.14;;;5.49;66.68
61761;BME280;47664;51.660;-0.100;2023-01-26T11:36:33;102389.58;;;5.37;66.50
61761;BME280;47664;51.660;-0.100;2023-01-26T11:39:12;102384.84;;;5.32;67.42
61761;BME280;47664;51.660;-0.100;2023-01-26T11:41:53;102393.86;;;5.72;66.86
61761;BME280;47664;51.660;-0.100;2023-01-26T11:44:36;102389.89;;;5.07;66.48
61761;BME280;47664;51.660;-0.100;2023-01-26T11:47:22;102385.30;;;6.08;65.62
61761;BME280;47664;51.660;-0.100;2023-01-26T11:50:09;102386.31;;;5.58;65.45
61761;BME280;47664;51.660;-0.100;2023-01-26T11:52:48;102384.23;;;5.72;66.04
61761;BME280;47664;51.660;-0.100;2023-01-26T11:55:24;102381.61;;;6.04;65.67
61761;BME280;47664;51.660;-0.100;2023-01-26T11:58:10;102382.30;;;6.25;65.28
61761;BME280;47664;51.660;-0.100;2023-01-26T12:00:47;102386.26;;;6.06;65.01
61761;BME280;47664;51.660;-0.100;2023-01-26T12:03:21;102384.80;;;6.16;65.22
61761;BME280;47664;51.660;-0.100;2023-01-26T12:05:54;102385.10;;;5.86;65.44
61761;BME280;47664;51.660;-0.100;2023-01-26T12:08:27;102375.33;;;5.30;66.08
61761;BME280;47664;51.660;-0.100;2023-01-26T12:11:01;102376.05;;;5.59;65.11
61761;BME280;47664;51.660;-0.100;2023-01-26T12:13:35;102373.62;;;6.22;63.79
61761;BME280;47664;51.660;-0.100;2023-01-26T12:16:12;102378.16;;;5.63;66.03
61761;BME280;47664;51.660;-0.100;2023-01-26T12:18:46;102367.67;;;5.77;65.32
61761;BME280;47664;51.660;-0.100;2023-01-26T12:21:22;102360.39;;;6.32;64.98
61761;BME280;47664;51.660;-0.100;2023-01-26T12:23:59;102360.05;;;6.36;63.87
61761;BME280;47664;51.660;-0.100;2023-01-26T12:26:32;102359.34;;;5.64;64.36
61761;BME280;47664;51.660;-0.100;2023-01-26T12:29:05;102353.06;;;6.21;63.72
61761;BME280;47664;51.660;-0.100;2023-01-26T12:31:43;102346.81;;;6.48;62.98
61761;BME280;47664;51.660;-0.100;2023-01-26T12:34:18;102358.30;;;6.32;63.53
61761;BME280;47664;51.660;-0.100;2023-01-26T12:36:53;102356.88;;;6.59;63.00
61761;BME280;47664;51.660;-0.100;2023-01-26T12:39:30;102356.97;;;6.27;62.99
61761;BME280;47664;51.660;-0.100;2023-01-26T12:42:08;102357.87;;;6.67;63.10
61761;BME280;47664;51.660;-0.100;2023-01-26T12:44:45;102357.55;;;6.29;64.11
61761;BME280;47664;51.660;-0.100;2023-01-26T12:47:19;102356.55;;;6.63;63.01
61761;BME280;47664;51.660;-0.100;2023-01-26T12:49:53;102359.88;;;6.35;63.45
61761;BME280;47664;51.660;-0.100;2023-01-26T12:52:28;102354.94;;;6.43;63.54
61761;BME280;47664;51.660;-0.100;2023-01-26T12:55:01;102351.84;;;6.72;62.89
61761;BME280;47664;51.660;-0.100;2023-01-26T12:57:34;102350.15;;;6.34;63.47
61761;BME280;47664;51.660;-0.100;2023-01-26T13:00:15;102350.24;;;6.39;64.95
61761;BME280;47664;51.660;-0.100;2023-01-26T13:02:51;102349.17;;;6.11;66.38
61761;BME280;47664;51.660;-0.100;2023-01-26T13:05:27;102353.12;;;5.64;66.60
61761;BME280;47664;51.660;-0.100;2023-01-26T13:08:37;102351.24;;;5.94;66.87
61761;BME280;47664;51.660;-0.100;2023-01-26T13:11:13;102354.40;;;5.76;66.39
61761;BME280;47664;51.660;-0.100;2023-01-26T13:14:24;102349.31;;;6.41;65.67
61761;BME280;47664;51.660;-0.100;2023-01-26T13:17:39;102350.96;;;5.36;67.52
61761;BME280;47664;51.660;-0.100;2023-01-26T13:20:53;102355.62;;;5.76;66.54
61761;BME280;47664;51.660;-0.100;2023-01-26T13:23:41;102345.69;;;5.88;65.95
61761;BME280;47664;51.660;-0.100;2023-01-26T13:26:14;102349.07;;;6.24;65.93
61761;BME280;47664;51.660;-0.100;2023-01-26T13:28:47;102345.83;;;6.02;65.79